Time;durP1;ratioP1;P1;durP2;ratioP2;P2;SDS_P1;SDS_P2;PMS_P1;PMS_P2;Temp;Humidity;BMP_temperature;BMP_pressure;BME280_temperature;BME280_humidity;BME280_pressure;Samples;Min_cycle;Max_cycle;Signal;HPM_P1;HPM_P2
2021/04/05 00:00:09;;;;;;;2.30;2.00;;;20.10;56.10;;;;;;5057939;28;20108;-50
2021/04/05 00:02:35;;;;;;;1.83;1.70;;;20.00;56.20;;;;;;5058182;28;20103;-50
2021/04/05 00:05:00;;;;;;;1.58;1.48;;;20.00;56.30;;;;;;5057717;28;20438;-49
2021/04/05 00:07:26;;;;;;;1.70;1.60;;;20.00;56.20;;;;;;5068776;28;20112;-49
2021/04/05 00:09:51;;;;;;;2.88;1.55;;;20.00;56.30;;;;;;5057324;28;20116;-52
2021/04/05 00:12:17;;;;;;;1.80;1.55;;;20.00;56.30;;;;;;5053717;28;20430;-48
2021/04/05 00:14:43;;;;;;;1.85;1.70;;;20.00;56.30;;;;;;5057829;28;20025;-49
2021/04/05 00:17:08;;;;;;;1.83;1.70;;;20.00;56.40;;;;;;5057511;28;20032;-47
2021/04/05 00:19:37;;;;;;;2.28;2.00;;;20.00;56.20;;;;;;5053592;28;20066;-50
2021/04/05 00:22:03;;;;;;;1.85;1.75;;;20.00;56.20;;;;;;5064612;28;20059;-52
2021/04/05 00:24:28;;;;;;;2.10;1.90;;;20.00;56.20;;;;;;5058401;28;20052;-49
2021/04/05 00:26:54;;;;;;;1.50;1.40;;;20.00;56.10;;;;;;5057150;28;20029;-48
2021/04/05 00:29:20;;;;;;;2.67;2.00;;;20.00;56.10;;;;;;5057436;28;20055;-50
2021/04/05 00:31:45;;;;;;;2.63;1.80;;;20.00;56.00;;;;;;5055081;28;20074;-50
2021/04/05 00:34:11;;;;;;;1.65;1.50;;;20.00;56.20;;;;;;5055428;28;20036;-50
2021/04/05 00:36:36;;;;;;;1.50;1.40;;;19.90;56.30;;;;;;5057251;28;20029;-48
2021/04/05 00:39:04;;;;;;;2.20;2.00;;;19.90;56.10;;;;;;5057465;28;20029;-49
2021/04/05 00:41:30;;;;;;;1.95;1.85;;;19.90;56.00;;;;;;5069932;28;20502;-48
2021/04/05 00:43:55;;;;;;;1.80;1.70;;;19.90;56.10;;;;;;5084660;28;20021;-53
2021/04/05 00:46:24;;;;;;;2.10;1.95;;;19.90;56.30;;;;;;5066809;28;20909;-49
2021/04/05 00:48:50;;;;;;;1.92;1.73;;;19.90;55.80;;;;;;5056588;28;20502;-48
2021/04/05 00:51:26;;;;;;;1.55;1.45;;;19.90;56.50;;;;;;5057006;28;20040;-47
2021/04/05 00:53:51;;;;;;;1.95;1.85;;;19.90;56.20;;;;;;5056997;28;20033;-41
2021/04/05 00:56:21;;;;;;;2.05;1.95;;;19.90;56.30;;;;;;5054706;28;20082;-51
2021/04/05 00:58:47;;;;;;;1.85;1.73;;;19.80;56.20;;;;;;5062301;28;20024;-50
2021/04/05 01:01:16;;;;;;;2.20;2.00;;;19.90;56.40;;;;;;5054591;28;20031;-49
2021/04/05 01:03:43;;;;;;;1.80;1.70;;;19.90;55.90;;;;;;5056402;28;20131;-48
2021/04/05 01:06:12;;;;;;;4.35;2.25;;;19.90;56.00;;;;;;5077595;28;20037;-47
2021/04/05 01:08:37;;;;;;;2.05;1.85;;;19.80;56.00;;;;;;5056470;28;20392;-48
2021/04/05 01:11:04;;;;;;;2.00;1.80;;;19.80;56.10;;;;;;5072108;28;20078;-42
2021/04/05 01:13:29;;;;;;;1.70;1.60;;;19.90;56.20;;;;;;5052496;28;20510;-48
2021/04/05 01:15:55;;;;;;;1.45;1.35;;;19.80;54.80;;;;;;5058995;28;20035;-48
2021/04/05 01:18:21;;;;;;;2.05;1.70;;;19.90;55.00;;;;;;5057463;28;20048;-49
2021/04/05 01:20:46;;;;;;;1.92;1.65;;;19.90;55.00;;;;;;5059389;28;20055;-46
2021/04/05 01:23:12;;;;;;;1.70;1.50;;;19.90;55.30;;;;;;5067031;28;20100;-50
2021/04/05 01:25:38;;;;;;;1.65;1.55;;;19.90;55.60;;;;;;5054020;28;20052;-50
2021/04/05 01:28:04;;;;;;;1.70;1.55;;;20.00;55.80;;;;;;5067369;28;20047;-49
2021/04/05 01:31:02;;;;;;;1.38;1.20;;;19.90;56.20;;;;;;5056741;28;20017;-52
2021/04/05 01:33:38;;;;;;;1.60;1.50;;;19.90;56.30;;;;;;5088399;28;20040;-52
2021/04/05 01:36:06;;;;;;;2.13;1.80;;;19.90;57.10;;;;;;5085430;28;20043;-52
2021/04/05 01:38:36;;;;;;;1.95;1.67;;;19.90;56.60;;;;;;5085010;28;20021;-50
2021/04/05 01:41:10;;;;;;;1.80;1.58;;;19.90;56.60;;;;;;5085729;28;20024;-48
2021/04/05 01:43:36;;;;;;;2.33;1.50;;;19.90;56.30;;;;;;5085989;28;20024;-46
2021/04/05 01:46:02;;;;;;;1.90;1.67;;;19.90;56.60;;;;;;5088975;28;20131;-49
2021/04/05 01:48:29;;;;;;;1.38;1.27;;;19.90;56.60;;;;;;5087120;28;20118;-50
2021/04/05 01:51:12;;;;;;;1.52;1.38;;;19.90;56.70;;;;;;5085702;28;20089;-49
2021/04/05 01:53:39;;;;;;;1.58;1.48;;;19.80;56.70;;;;;;5085459;28;20028;-50
2021/04/05 01:56:06;;;;;;;2.40;1.92;;;19.80;56.50;;;;;;5085803;28;20494;-52
2021/04/05 01:58:31;;;;;;;1.00;1.00;;;19.80;56.70;;;;;;5070153;28;20047;-49
2021/04/05 02:00:57;;;;;;;1.67;1.55;;;19.80;57.10;;;;;;5088990;28;20573;-51
2021/04/05 02:03:23;;;;;;;2.75;1.33;;;19.80;57.10;;;;;;5085613;28;20565;-50
2021/04/05 02:06:15;;;;;;;1.75;1.35;;;19.80;57.00;;;;;;5068847;28;20073;-49
2021/04/05 02:08:40;;;;;;;1.55;1.40;;;19.80;56.70;;;;;;5066292;28;20576;-53
2021/04/05 02:11:08;;;;;;;1.98;1.33;;;19.80;56.90;;;;;;5070814;28;20024;-54
2021/04/05 02:13:34;;;;;;;1.48;1.38;;;19.80;56.70;;;;;;5069662;28;20085;-52
2021/04/05 02:16:00;;;;;;;1.55;1.20;;;19.80;56.90;;;;;;5072827;28;20518;-50
2021/04/05 02:18:25;;;;;;;1.23;1.13;;;19.80;56.90;;;;;;5070626;28;20124;-53
2021/04/05 02:20:51;;;;;;;1.48;1.25;;;19.80;56.90;;;;;;5071358;28;20033;-50
2021/04/05 02:23:17;;;;;;;1.45;1.13;;;19.80;56.90;;;;;;5071571;28;20071;-48
2021/04/05 02:28:28;;;;;;;1.33;1.23;;;19.80;57.00;;;;;;5065917;28;20425;-53
2021/04/05 02:30:54;;;;;;;1.75;1.45;;;19.80;57.10;;;;;;5079764;28;20049;-48
2021/04/05 02:33:20;;;;;;;1.15;1.02;;;19.80;57.00;;;;;;5067423;28;20055;-50
2021/04/05 02:35:45;;;;;;;1.52;1.30;;;19.80;57.10;;;;;;5058749;28;20025;-44
2021/04/05 02:38:11;;;;;;;1.40;1.30;;;19.80;56.80;;;;;;5072606;28;20036;-50
2021/04/05 02:40:36;;;;;;;1.40;1.27;;;19.80;57.20;;;;;;5054674;28;20033;-51
2021/04/05 02:43:02;;;;;;;1.33;1.23;;;19.70;57.20;;;;;;5071763;28;20039;-40
2021/04/05 02:45:28;;;;;;;1.48;1.00;;;19.70;57.10;;;;;;5067750;28;20157;-50
2021/04/05 02:47:58;;;;;;;0.93;0.88;;;19.80;57.20;;;;;;5069380;28;20043;-51
2021/04/05 02:50:29;;;;;;;1.30;1.17;;;19.70;57.30;;;;;;5069929;28;20521;-46
2021/04/05 02:52:57;;;;;;;1.20;1.10;;;19.70;56.60;;;;;;5068160;28;20444;-48
2021/04/05 02:55:22;;;;;;;1.27;1.17;;;19.70;57.20;;;;;;5061375;28;20029;-49
2021/04/05 02:57:48;;;;;;;1.60;1.50;;;19.70;57.10;;;;;;5085015;28;20074;-51
2021/04/05 03:00:15;;;;;;;1.38;1.25;;;19.70;57.30;;;;;;5059879;28;20035;-51
2021/04/05 03:02:42;;;;;;;2.28;1.15;;;19.70;57.20;;;;;;5060654;28;20029;-51
2021/04/05 03:05:08;;;;;;;1.58;1.20;;;19.70;57.00;;;;;;5063291;28;20051;-51
2021/04/05 03:07:34;;;;;;;1.50;1.38;;;19.70;57.20;;;;;;5070221;28;20103;-48
2021/04/05 03:10:00;;;;;;;1.10;1.00;;;19.70;57.30;;;;;;5057059;28;20262;-47
2021/04/05 03:12:27;;;;;;;0.93;0.93;;;19.70;57.00;;;;;;5074497;28;20033;-52
2021/04/05 03:14:53;;;;;;;0.93;0.93;;;19.70;57.10;;;;;;5060222;28;20025;-49
2021/04/05 03:17:19;;;;;;;1.52;1.13;;;19.70;57.00;;;;;;5066645;28;20056;-54
2021/04/05 03:19:44;;;;;;;1.30;1.10;;;19.70;57.20;;;;;;5064750;28;20438;-52
2021/04/05 03:22:10;;;;;;;1.20;1.10;;;19.70;57.90;;;;;;5066898;28;20036;-50
2021/04/05 03:24:36;;;;;;;0.80;0.80;;;19.70;57.00;;;;;;5055179;28;20104;-52
2021/04/05 03:27:02;;;;;;;1.40;1.30;;;19.70;57.10;;;;;;5067807;28;20040;-53
2021/04/05 03:29:27;;;;;;;1.25;1.15;;;19.70;57.20;;;;;;5067242;28;20025;-52
2021/04/05 03:31:53;;;;;;;1.20;1.10;;;19.70;56.80;;;;;;5065279;28;20032;-51
2021/04/05 03:34:20;;;;;;;1.23;1.13;;;19.80;56.90;;;;;;5054723;28;20033;-53
2021/04/05 03:36:58;;;;;;;0.98;0.88;;;19.80;56.60;;;;;;5057837;28;20021;-48
2021/04/05 03:39:25;;;;;;;3.33;1.02;;;19.80;56.60;;;;;;5057243;28;20025;-52
2021/04/05 03:42:00;;;;;;;1.10;1.00;;;19.80;56.40;;;;;;5053683;28;20040;-51
2021/04/05 03:44:47;;;;;;;0.80;0.80;;;19.80;56.50;;;;;;5058798;28;20120;-51
2021/04/05 03:47:23;;;;;;;2.35;1.00;;;19.80;56.90;;;;;;5057228;28;20032;-52
2021/04/05 03:50:03;;;;;;;1.48;0.90;;;19.70;56.70;;;;;;5051303;28;20098;-49
2021/04/05 03:52:36;;;;;;;1.10;1.00;;;19.70;56.80;;;;;;5062999;28;20060;-49
2021/04/05 03:55:05;;;;;;;1.65;0.88;;;19.70;57.10;;;;;;5097307;28;20021;-52
2021/04/05 03:57:37;;;;;;;1.55;1.00;;;19.70;57.20;;;;;;5085152;28;20043;-50
2021/04/05 04:00:08;;;;;;;1.13;0.90;;;19.70;57.00;;;;;;5063928;28;20028;-53
2021/04/05 04:02:43;;;;;;;1.23;1.13;;;19.70;57.10;;;;;;5065049;28;20143;-52
2021/04/05 04:07:48;;;;;;;1.00;1.00;;;19.70;57.30;;;;;;5066130;28;20032;-54
2021/04/05 04:10:14;;;;;;;1.27;1.05;;;19.70;57.20;;;;;;5069492;28;20113;-53
2021/04/05 04:12:42;;;;;;;0.98;0.85;;;19.70;57.00;;;;;;5068673;28;20032;-54
2021/04/05 04:15:08;;;;;;;1.10;1.00;;;19.70;57.00;;;;;;5058851;28;20032;-52
2021/04/05 04:17:34;;;;;;;0.90;0.90;;;19.70;57.20;;;;;;5057643;28;20529;-53
2021/04/05 04:20:02;;;;;;;1.20;1.10;;;19.60;57.70;;;;;;5062395;28;20444;-50
2021/04/05 04:22:28;;;;;;;0.90;0.90;;;19.70;57.00;;;;;;5051284;28;20009;-51
2021/04/05 04:24:54;;;;;;;1.00;0.90;;;19.70;57.00;;;;;;5064940;28;20029;-53
2021/04/05 04:27:19;;;;;;;1.20;1.10;;;19.70;56.70;;;;;;5057241;28;20036;-47
2021/04/05 04:29:54;;;;;;;0.93;0.93;;;19.70;57.60;;;;;;5060791;28;20114;-52
2021/04/05 04:32:21;;;;;;;0.82;0.82;;;19.60;57.10;;;;;;5055051;28;20028;-54
2021/04/05 04:34:46;;;;;;;1.17;1.08;;;19.60;57.40;;;;;;5054237;28;20021;-51
2021/04/05 04:37:12;;;;;;;0.80;0.80;;;19.60;57.40;;;;;;5062863;28;20566;-49
2021/04/05 04:39:38;;;;;;;1.08;0.98;;;19.70;56.70;;;;;;5054360;28;20051;-51
2021/04/05 04:42:04;;;;;;;1.08;0.90;;;19.70;56.60;;;;;;5059346;28;20421;-48
2021/04/05 04:44:29;;;;;;;1.83;1.02;;;19.70;56.50;;;;;;5063450;28;20123;-50
2021/04/05 04:46:55;;;;;;;1.10;1.00;;;19.70;56.50;;;;;;5055049;28;20507;-48
2021/04/05 04:49:20;;;;;;;0.80;0.80;;;19.70;56.70;;;;;;5052365;28;20048;-53
2021/04/05 04:51:46;;;;;;;0.88;0.88;;;19.70;56.40;;;;;;5055558;28;20036;-51
2021/04/05 04:54:12;;;;;;;0.93;0.88;;;19.70;56.60;;;;;;5056540;28;20035;-49
2021/04/05 04:56:38;;;;;;;1.00;0.80;;;19.70;56.70;;;;;;5058464;28;20021;-49
2021/04/05 04:59:08;;;;;;;1.10;1.00;;;19.70;56.60;;;;;;5068474;28;20024;-54
2021/04/05 05:01:38;;;;;;;0.90;0.90;;;19.70;56.60;;;;;;5058716;28;20089;-46
2021/04/05 05:04:24;;;;;;;1.00;0.90;;;19.60;56.70;;;;;;5057491;28;20534;-52
2021/04/05 05:06:52;;;;;;;0.68;0.68;;;19.70;56.40;;;;;;5056263;28;20033;-52
2021/04/05 05:09:18;;;;;;;0.70;0.70;;;19.70;56.20;;;;;;5073797;28;20065;-50
2021/04/05 05:11:44;;;;;;;1.15;1.05;;;19.70;56.60;;;;;;5083752;28;20024;-53
2021/04/05 05:14:11;;;;;;;1.15;1.08;;;19.60;56.60;;;;;;5054429;28;20028;-55
2021/04/05 05:16:37;;;;;;;0.80;0.80;;;19.60;56.70;;;;;;5049884;28;20020;-52
2021/04/05 05:19:03;;;;;;;0.88;0.85;;;19.70;56.50;;;;;;5053344;28;20406;-46
2021/04/05 05:21:30;;;;;;;0.90;0.90;;;19.70;56.60;;;;;;5059408;28;20095;-52
2021/04/05 05:23:58;;;;;;;0.77;0.75;;;19.60;56.60;;;;;;5055163;28;20033;-49
2021/04/05 05:26:23;;;;;;;1.67;1.10;;;19.60;56.70;;;;;;5055714;28;20048;-51
2021/04/05 05:28:52;;;;;;;1.45;1.10;;;19.60;56.80;;;;;;5068788;28;20193;-47
2021/04/05 05:31:18;;;;;;;1.02;1.02;;;19.60;56.60;;;;;;5058936;28;20031;-53
2021/04/05 05:33:44;;;;;;;1.10;0.90;;;19.60;56.60;;;;;;5081570;28;20033;-53
2021/04/05 05:36:09;;;;;;;1.38;1.20;;;19.50;57.30;;;;;;5057223;28;20063;-53
2021/04/05 05:38:35;;;;;;;1.10;1.08;;;19.50;56.70;;;;;;5063990;28;20478;-49
2021/04/05 05:41:07;;;;;;;1.10;1.00;;;19.50;56.70;;;;;;5053775;28;20023;-53
2021/04/05 05:43:46;;;;;;;1.50;0.90;;;19.50;56.70;;;;;;5048572;28;20078;-53
2021/04/05 05:46:13;;;;;;;0.70;0.70;;;19.50;57.00;;;;;;5049477;28;20111;-52
2021/04/05 05:48:58;;;;;;;0.90;0.90;;;19.50;56.60;;;;;;5054368;28;20035;-48
2021/04/05 05:51:39;;;;;;;;;;;19.50;56.60;;;;;;5055056;28;20024;-53
2021/04/05 05:54:39;;;;;;;0.70;0.70;;;19.50;56.80;;;;;;5055109;28;20375;-52
2021/04/05 05:57:55;;;;;;;1.10;1.00;;;19.50;57.00;;;;;;5068673;28;20399;-53
2021/04/05 06:00:28;;;;;;;1.10;1.00;;;19.50;56.90;;;;;;5103515;28;20024;-50
2021/04/05 06:03:34;;;;;;;0.80;0.80;;;19.50;56.80;;;;;;5070838;28;20110;-49
2021/04/05 06:06:02;;;;;;;1.55;1.02;;;19.50;57.40;;;;;;5071758;28;20032;-50
2021/04/05 06:08:32;;;;;;;1.20;0.95;;;19.50;56.50;;;;;;5087226;28;20497;-52
2021/04/05 06:11:06;;;;;;;0.70;0.70;;;19.50;56.80;;;;;;5066233;28;20044;-52
2021/04/05 06:13:50;;;;;;;1.17;0.80;;;19.50;56.60;;;;;;5084084;28;20028;-52
2021/04/05 06:16:34;;;;;;;1.35;0.80;;;19.50;56.50;;;;;;5085095;28;20035;-49
2021/04/05 06:18:59;;;;;;;1.95;1.13;;;19.50;56.40;;;;;;5067158;28;20525;-52
2021/04/05 06:21:43;;;;;;;0.90;0.90;;;19.50;56.60;;;;;;5055671;28;20026;-50
2021/04/05 06:24:30;;;;;;;1.08;0.95;;;19.50;56.60;;;;;;5063247;28;20434;-53
2021/04/05 06:27:00;;;;;;;1.00;0.90;;;19.50;56.80;;;;;;4993841;28;20548;-49
2021/04/05 06:29:48;;;;;;;0.98;0.98;;;19.50;56.70;;;;;;4999537;28;20054;-50
2021/04/05 06:32:58;;;;;;;2.15;1.00;;;19.60;56.30;;;;;;4972787;28;20038;-50
2021/04/05 06:35:48;;;;;;;1.23;1.10;;;19.50;56.20;;;;;;4986554;28;20073;-50
2021/04/05 06:38:24;;;;;;;1.05;0.98;;;19.50;56.50;;;;;;4986255;28;20039;-52
2021/04/05 06:40:49;;;;;;;1.20;1.10;;;19.50;56.40;;;;;;4952205;28;20556;-49
2021/04/05 06:43:39;;;;;;;1.20;1.10;;;19.50;56.50;;;;;;4955197;28;20027;-50
2021/04/05 06:46:07;;;;;;;1.48;0.90;;;19.50;56.30;;;;;;4973709;28;20023;-48
2021/04/05 06:49:24;;;;;;;1.00;0.90;;;19.50;56.60;;;;;;4985677;28;20042;-51
2021/04/05 06:52:14;;;;;;;0.73;0.73;;;19.50;56.50;;;;;;4984908;28;20046;-47
2021/04/05 06:55:16;;;;;;;1.02;0.90;;;19.50;56.20;;;;;;4987189;28;20048;-49
2021/04/05 06:58:05;;;;;;;1.30;1.20;;;19.50;56.50;;;;;;4989947;28;20096;-49
2021/04/05 07:01:08;;;;;;;1.42;1.33;;;19.50;56.90;;;;;;4975475;28;20061;-53
2021/04/05 07:04:07;;;;;;;0.98;0.80;;;19.50;56.60;;;;;;5005533;28;20032;-52
2021/04/05 07:06:51;;;;;;;1.08;0.95;;;19.50;56.90;;;;;;5048380;28;20047;-54
2021/04/05 07:09:35;;;;;;;1.17;0.70;;;19.50;56.50;;;;;;5046002;28;20514;-49
2021/04/05 07:12:18;;;;;;;1.00;0.70;;;19.50;56.70;;;;;;5042225;28;20037;-52
2021/04/05 07:15:19;;;;;;;0.85;0.85;;;19.50;56.50;;;;;;5044543;28;20052;-48
2021/04/05 07:18:00;;;;;;;0.90;0.80;;;19.50;56.50;;;;;;5044450;28;20072;-50
2021/04/05 07:20:40;;;;;;;0.88;0.88;;;19.50;56.60;;;;;;5044335;28;20624;-50
2021/04/05 07:23:19;;;;;;;1.10;1.00;;;19.50;56.50;;;;;;5044462;28;20439;-46
2021/04/05 07:25:55;;;;;;;0.90;0.60;;;19.50;56.70;;;;;;5046399;28;20045;-51
2021/04/05 07:28:43;;;;;;;1.20;1.00;;;19.60;56.70;;;;;;5075765;28;20080;-49
2021/04/05 07:31:15;;;;;;;0.90;0.90;;;19.70;56.40;;;;;;5066207;28;20044;-50
2021/04/05 07:33:42;;;;;;;1.73;1.20;;;19.70;55.90;;;;;;5070871;28;20112;-51
2021/04/05 07:36:10;;;;;;;1.25;1.15;;;19.60;57.70;;;;;;5052336;28;20502;-48
2021/04/05 07:38:45;;;;;;;1.00;0.90;;;19.50;57.90;;;;;;5063057;28;20138;-51
2021/04/05 07:41:30;;;;;;;1.23;1.00;;;19.50;56.80;;;;;;5057471;28;20025;-51
2021/04/05 07:43:59;;;;;;;1.30;1.20;;;19.60;57.00;;;;;;5065108;28;20120;-49
2021/04/05 07:46:43;;;;;;;0.80;0.80;;;19.60;57.20;;;;;;5065769;28;20024;-52
2021/04/05 07:49:25;;;;;;;1.05;0.98;;;19.50;57.40;;;;;;5066749;28;20422;-51
2021/04/05 07:51:54;;;;;;;1.85;1.00;;;19.50;57.50;;;;;;5068887;28;20094;-52
2021/04/05 07:54:22;;;;;;;0.85;0.85;;;19.60;57.70;;;;;;5065492;28;20032;-48
2021/04/05 07:56:50;;;;;;;2.72;0.82;;;19.60;57.50;;;;;;5095643;28;20025;-49
2021/04/05 07:59:49;;;;;;;1.30;0.90;;;19.50;57.60;;;;;;5061826;28;20037;-48
2021/04/05 08:02:36;;;;;;;0.93;0.90;;;19.50;57.50;;;;;;5066914;28;20112;-53
2021/04/05 08:05:34;;;;;;;1.52;1.10;;;19.50;57.00;;;;;;5097774;28;20028;-53
2021/04/05 08:08:21;;;;;;;1.08;1.00;;;19.50;57.50;;;;;;5066497;28;20043;-55
2021/04/05 08:11:16;;;;;;;1.30;1.20;;;19.50;58.00;;;;;;5051617;28;20499;-50
2021/04/05 08:14:10;;;;;;;1.10;1.00;;;19.50;58.00;;;;;;5058427;28;20109;-53
2021/04/05 08:16:58;;;;;;;2.15;1.15;;;19.50;57.70;;;;;;5094083;28;20021;-51
2021/04/05 08:19:45;;;;;;;1.70;0.93;;;19.50;58.20;;;;;;5065361;28;20024;-53
2021/04/05 08:22:14;;;;;;;4.00;1.15;;;19.50;58.30;;;;;;5068191;28;20561;-54
2021/04/05 08:25:04;;;;;;;1.30;1.20;;;19.50;57.30;;;;;;5060186;28;20023;-54
2021/04/05 08:27:53;;;;;;;1.40;1.30;;;19.50;57.60;;;;;;5064934;28;20116;-55
2021/04/05 08:30:33;;;;;;;2.47;1.48;;;19.50;56.20;;;;;;5065889;28;20032;-54
2021/04/05 08:33:29;;;;;;;1.55;1.25;;;19.40;57.50;;;;;;5061497;28;20593;-57
2021/04/05 08:36:09;;;;;;;1.60;1.50;;;19.40;56.80;;;;;;5084321;28;20081;-56
2021/04/05 08:39:06;;;;;;;1.50;1.40;;;19.50;55.90;;;;;;5065215;28;20047;-51
2021/04/05 08:41:31;;;;;;;1.40;1.30;;;19.50;56.40;;;;;;5083807;28;20036;-52
2021/04/05 08:44:13;;;;;;;4.30;2.00;;;19.60;56.50;;;;;;5078491;28;20544;-54
2021/04/05 08:46:38;;;;;;;1.70;1.58;;;19.60;56.30;;;;;;5077792;28;20031;-57
2021/04/05 08:49:07;;;;;;;2.15;1.50;;;19.60;57.80;;;;;;5045885;28;20036;-51
2021/04/05 08:51:36;;;;;;;5.43;2.03;;;19.70;58.30;;;;;;5081652;28;20050;-49
2021/04/05 08:54:04;;;;;;;3.70;1.48;;;19.80;57.90;;;;;;5081467;28;20043;-58
2021/04/05 08:56:34;;;;;;;2.25;1.40;;;19.80;58.00;;;;;;5083644;28;20229;-60
2021/04/05 08:59:04;;;;;;;1.90;1.73;;;19.80;57.60;;;;;;5055287;28;20040;-62
2021/04/05 09:02:02;;;;;;;1.52;1.42;;;19.80;57.50;;;;;;5068499;28;20024;-56
2021/04/05 09:04:28;;;;;;;3.00;1.83;;;19.90;56.80;;;;;;5001851;28;20034;-55
2021/04/05 09:07:05;;;;;;;1.50;1.40;;;19.90;56.90;;;;;;4987510;28;20046;-50
2021/04/05 09:09:32;;;;;;;1.92;1.35;;;19.90;57.60;;;;;;5003517;28;20053;-54
2021/04/05 09:11:58;;;;;;;1.63;1.05;;;19.90;57.30;;;;;;4987011;28;20094;-53
2021/04/05 09:14:23;;;;;;;5.55;1.73;;;19.90;57.40;;;;;;4985084;28;20970;-56
2021/04/05 09:16:52;;;;;;;1.58;1.48;;;19.90;57.30;;;;;;4986975;28;20046;-58
2021/04/05 09:19:49;;;;;;;6.43;1.55;;;19.90;57.30;;;;;;5023689;28;20048;-56
2021/04/05 09:22:42;;;;;;;2.70;1.60;;;19.90;57.70;;;;;;5009395;28;20160;-57
2021/04/05 09:25:16;;;;;;;1.58;1.40;;;19.90;57.40;;;;;;5023434;28;20037;-56
2021/04/05 09:28:11;;;;;;;1.63;1.52;;;19.90;57.30;;;;;;5024683;28;20499;-52
2021/04/05 09:31:25;;;;;;;1.45;1.35;;;20.00;56.80;;;;;;5010584;28;20576;-58
2021/04/05 09:34:02;;;;;;;3.67;1.60;;;20.10;56.90;;;;;;4982970;28;20034;-56
2021/04/05 09:37:06;;;;;;;1.75;1.65;;;20.20;57.00;;;;;;4982917;28;20026;-57
2021/04/05 09:40:05;;;;;;;2.00;1.30;;;20.10;57.00;;;;;;4982509;28;20042;-58
2021/04/05 09:43:08;;;;;;;2.20;1.80;;;20.10;57.40;;;;;;5022816;28;20049;-52
2021/04/05 09:45:42;;;;;;;2.58;1.67;;;20.20;56.90;;;;;;5023862;28;20129;-58
2021/04/05 09:48:12;;;;;;;2.22;2.03;;;20.20;56.40;;;;;;5022948;28;20037;-54
2021/04/05 09:51:08;;;;;;;1.80;1.63;;;20.20;56.20;;;;;;5023162;28;20120;-54
2021/04/05 09:54:01;;;;;;;2.50;1.60;;;20.30;56.20;;;;;;5019834;28;20423;-57
2021/04/05 09:56:31;;;;;;;1.90;1.65;;;20.30;55.90;;;;;;5021745;28;20064;-53
2021/04/05 09:59:05;;;;;;;3.88;1.58;;;20.40;55.90;;;;;;5024943;28;20048;-57
2021/04/05 10:01:31;;;;;;;1.73;1.53;;;20.40;55.70;;;;;;5023090;28;20041;-57
2021/04/05 10:03:57;;;;;;;2.60;1.35;;;20.40;56.00;;;;;;5024156;28;20110;-51
2021/04/05 10:06:25;;;;;;;1.55;1.30;;;20.50;55.70;;;;;;5027970;28;20034;-62
2021/04/05 10:08:51;;;;;;;1.52;1.42;;;20.60;55.60;;;;;;5010126;28;20049;-61
2021/04/05 10:11:16;;;;;;;4.30;1.42;;;20.70;55.40;;;;;;5011268;28;20035;-57
2021/04/05 10:13:51;;;;;;;3.22;1.63;;;20.80;55.70;;;;;;5004943;28;20045;-54
2021/04/05 10:16:19;;;;;;;1.90;1.80;;;20.80;54.80;;;;;;4990917;28;20022;-53
2021/04/05 10:18:50;;;;;;;1.50;1.23;;;20.80;54.40;;;;;;5070094;28;20048;-52
2021/04/05 10:21:17;;;;;;;1.63;1.52;;;20.80;54.10;;;;;;5086742;28;20016;-59
2021/04/05 10:23:42;;;;;;;2.22;2.10;;;20.80;54.10;;;;;;5082327;28;20111;-56
2021/04/05 10:26:08;;;;;;;4.45;2.10;;;20.90;54.10;;;;;;5082963;28;20024;-51
2021/04/05 10:28:35;;;;;;;4.68;1.80;;;20.90;53.80;;;;;;5084606;28;20048;-56
2021/04/05 10:31:04;;;;;;;2.67;2.28;;;20.80;53.10;;;;;;5121883;27;20035;-53
2021/04/05 10:33:37;;;;;;;2.20;2.00;;;20.80;53.80;;;;;;5085565;28;20044;-44
2021/04/05 10:36:04;;;;;;;2.30;2.05;;;20.70;53.80;;;;;;5087180;28;20100;-57
2021/04/05 10:38:30;;;;;;;3.35;2.92;;;20.70;54.30;;;;;;5086305;28;20024;-57
2021/04/05 10:40:56;;;;;;;5.00;3.40;;;20.60;54.10;;;;;;5087902;28;20119;-56
2021/04/05 10:43:32;;;;;;;5.53;3.40;;;20.60;55.80;;;;;;5084553;28;20418;-54
2021/04/05 10:46:40;;;;;;;4.10;3.00;;;20.50;55.00;;;;;;5088753;28;20482;-54
2021/04/05 10:49:10;;;;;;;3.42;3.10;;;20.40;56.30;;;;;;5087487;28;20044;-39
2021/04/05 10:51:47;;;;;;;3.10;2.90;;;20.40;55.70;;;;;;5088093;28;20028;-56
2021/04/05 10:54:27;;;;;;;8.13;4.97;;;20.40;55.20;;;;;;4732136;28;9999660;-55
2021/04/05 10:57:19;;;;;;;5.75;4.10;;;20.30;57.60;;;;;;5084565;28;20040;-56
2021/04/05 10:59:49;;;;;;;6.00;4.55;;;20.20;57.30;;;;;;5084957;28;20028;-58
2021/04/05 11:02:18;;;;;;;5.00;4.00;;;20.20;57.70;;;;;;5080550;28;20024;-57
2021/04/05 11:04:47;;;;;;;4.88;3.03;;;20.20;57.10;;;;;;5083520;28;20032;-60
2021/04/05 11:07:12;;;;;;;3.70;3.38;;;20.40;55.30;;;;;;5076711;28;20056;-44
2021/04/05 11:09:41;;;;;;;6.07;3.67;;;20.60;56.50;;;;;;5074586;28;20123;-43
2021/04/05 11:12:09;;;;;;;6.25;3.60;;;20.50;56.70;;;;;;5092631;27;20055;-43
2021/04/05 11:14:34;;;;;;;6.25;4.18;;;20.50;56.40;;;;;;5073178;28;20060;-39
2021/04/05 11:17:01;;;;;;;4.15;3.22;;;20.50;57.10;;;;;;5090931;28;20063;-46
2021/04/05 11:19:31;;;;;;;4.10;3.03;;;20.40;56.60;;;;;;5107279;28;20032;-58
2021/04/05 11:21:57;;;;;;;4.22;3.50;;;20.50;56.80;;;;;;5078459;28;20039;-53
2021/04/05 11:24:33;;;;;;;3.90;3.35;;;20.40;55.90;;;;;;5082001;28;20036;-58
2021/04/05 11:27:00;;;;;;;5.25;3.58;;;20.50;56.40;;;;;;5074853;28;20032;-53
2021/04/05 11:29:25;;;;;;;4.95;3.65;;;20.40;56.70;;;;;;5079248;28;20150;-53
2021/04/05 11:31:52;;;;;;;4.50;3.47;;;20.40;57.10;;;;;;5091485;28;20055;-59
2021/04/05 11:34:23;;;;;;;5.03;4.10;;;20.30;57.50;;;;;;5074923;28;20050;-53
2021/04/05 11:36:51;;;;;;;4.55;3.78;;;20.20;57.40;;;;;;5078616;28;20028;-59
2021/04/05 11:39:18;;;;;;;4.80;3.38;;;20.20;58.00;;;;;;5076134;28;20032;-52
2021/04/05 11:41:45;;;;;;;5.80;3.55;;;20.20;57.70;;;;;;5075776;28;20028;-59
2021/04/05 11:44:11;;;;;;;9.38;3.60;;;20.20;57.70;;;;;;5083521;28;20125;-47
2021/04/05 11:46:37;;;;;;;3.35;3.05;;;20.20;57.50;;;;;;5075214;28;20381;-51
2021/04/05 11:49:08;;;;;;;6.28;3.67;;;20.30;56.20;;;;;;5076422;28;20032;-52
2021/04/05 11:51:50;;;;;;;4.60;2.80;;;20.40;56.60;;;;;;5126149;27;20042;-50
2021/04/05 11:54:32;;;;;;;3.03;2.83;;;20.50;55.20;;;;;;5102417;28;20099;-51
2021/04/05 11:56:59;;;;;;;3.65;2.45;;;20.50;54.90;;;;;;5097553;28;20016;-61
2021/04/05 11:59:27;;;;;;;5.03;3.25;;;20.50;55.30;;;;;;5092835;28;20039;-61
2021/04/05 12:02:00;;;;;;;2.97;2.78;;;20.40;55.70;;;;;;5114374;27;20024;-51
2021/04/05 12:04:39;;;;;;;2.38;2.28;;;20.40;55.70;;;;;;5091661;28;20028;-61
2021/04/05 12:07:05;;;;;;;3.85;3.00;;;20.40;56.00;;;;;;5086936;28;20024;-50
2021/04/05 12:09:49;;;;;;;2.80;2.60;;;20.30;56.90;;;;;;5080478;28;20048;-61
2021/04/05 12:12:27;;;;;;;3.03;2.72;;;20.30;56.80;;;;;;5078952;28;20111;-57
2021/04/05 12:14:53;;;;;;;3.67;3.38;;;20.40;57.10;;;;;;5094472;27;20044;-53
2021/04/05 12:17:22;;;;;;;2.75;2.40;;;20.30;57.00;;;;;;5078221;28;20047;-37
2021/04/05 12:19:49;;;;;;;3.17;2.38;;;20.30;56.50;;;;;;5070752;28;20040;-57
2021/04/05 12:22:14;;;;;;;3.72;3.03;;;20.40;56.40;;;;;;5074776;28;20103;-56
2021/04/05 12:24:46;;;;;;;5.03;2.63;;;20.40;56.30;;;;;;5075146;28;20069;-54
2021/04/05 12:27:13;;;;;;;3.00;2.50;;;20.50;55.80;;;;;;5075033;28;20415;-53
2021/04/05 12:29:40;;;;;;;2.92;2.05;;;20.60;56.20;;;;;;5074556;28;20050;-53
2021/04/05 12:32:06;;;;;;;5.00;2.42;;;20.60;56.10;;;;;;5072099;28;20503;-52
2021/04/05 12:34:34;;;;;;;2.92;2.13;;;20.70;55.90;;;;;;5116903;27;20063;-54
2021/04/05 12:37:01;;;;;;;3.45;2.47;;;20.70;55.70;;;;;;5083271;28;20073;-54
2021/04/05 12:39:31;;;;;;;2.45;2.25;;;20.70;55.60;;;;;;5084411;28;20036;-54
2021/04/05 12:41:57;;;;;;;3.10;2.28;;;20.60;56.20;;;;;;5082783;28;20470;-56
2021/04/05 12:44:30;;;;;;;4.22;2.50;;;20.50;56.30;;;;;;5084681;28;20051;-52
2021/04/05 12:46:58;;;;;;;2.63;2.28;;;20.50;57.20;;;;;;5087042;28;20070;-58
2021/04/05 12:49:28;;;;;;;2.47;2.22;;;20.50;55.90;;;;;;5085596;28;21439;-57
2021/04/05 12:51:59;;;;;;;3.80;2.88;;;20.50;55.80;;;;;;5084066;28;20027;-57
2021/04/05 12:54:26;;;;;;;2.53;2.30;;;20.50;56.40;;;;;;5115670;27;20028;-54
2021/04/05 12:56:52;;;;;;;3.78;2.83;;;20.50;56.60;;;;;;5086273;28;20024;-57
2021/04/05 12:59:22;;;;;;;2.78;2.50;;;20.40;56.20;;;;;;5084366;28;20118;-54
2021/04/05 13:01:50;;;;;;;2.35;2.10;;;20.40;57.00;;;;;;5115672;27;20027;-57
2021/04/05 13:04:22;;;;;;;3.25;2.55;;;20.40;56.50;;;;;;5084565;28;20035;-56
2021/04/05 13:07:12;;;;;;;3.70;2.00;;;20.50;56.50;;;;;;5118769;27;20035;-40
2021/04/05 13:09:43;;;;;;;2.65;2.20;;;20.60;55.50;;;;;;5085855;28;20044;-53
2021/04/05 13:12:17;;;;;;;12.35;2.50;;;20.60;55.90;;;;;;5085369;28;20019;-48
2021/04/05 13:15:33;;;;;;;2.30;2.10;;;20.60;56.70;;;;;;5083899;28;20081;-48
2021/04/05 13:18:05;;;;;;;2.25;2.05;;;20.50;56.10;;;;;;5069372;28;20493;-56
2021/04/05 13:20:35;;;;;;;2.30;2.10;;;20.40;56.30;;;;;;5086232;28;20051;-56
2021/04/05 13:23:05;;;;;;;1.98;1.80;;;20.50;56.10;;;;;;5054626;28;20038;-58